Cassville, WI (53806)

4:33 PM CDT on September 21, 2019 (GMT -0500)
Cassville Fire | | Change Station
Active Advisory: Flash Flood Watch Active Notice: Flash Flood Watch

Elev 626 ft 42.72 °N, 90.99 °W | Updated 9 seconds ago

Overcast
Overcast
75.4 °F
Feels Like 73 °F
N
4.9
Wind Variable Wind from SSW
Gusts 8.7 mph

Today
High -- | Low -- °F
--% Chance of Precip.
Yesterday
High -- | Low -- °F
Precip. -- in
Pressure 29.89 in
Visibility 10.0 miles
Clouds Scattered Clouds 1700 ft
Mostly Cloudy 2600 ft
Overcast 3600 ft
Heat Index 73 °F
Dew Point 75 °F
Humidity 99%
Rainfall 0.00 in
Snow Depth Not available.
6:49 AM 7:03 PM
Waning Gibbous, 52% visible
METAR KPDC 212115Z AUTO 18008KT 10SM SCT017 BKN026 OVC036 24/21 A2989 RMK AO2 T02400205
Pressure 29.89 in
Visibility 10.0 miles
Clouds Scattered Clouds 1700 ft
Mostly Cloudy 2600 ft
Overcast 3600 ft
Heat Index 73 °F
Dew Point 75 °F
Humidity 99%
Rainfall 0.00 in
Snow Depth Not available.
6:49 AM 7:03 PM
Waning Gibbous, 52% visible
METAR KPDC 212115Z AUTO 18008KT 10SM SCT017 BKN026 OVC036 24/21 A2989 RMK AO2 T02400205

Get Your Daily Forecast Email!

Thanks for signing up!

Be on the lookout for a verification email in your inbox.

You'll start receiving severe weather alerts in your inbox..

×

10-Day Weather Forecast

Almanac

Astronomy

Sep. 21, 2019 Rise Set
Actual Time
Civil Twilight
Nautical Twilight
Astronomical Twilight
Moon
Length of Visible Light
Length of Day
Tomorrow will be .
, % of the Moon is Illuminated

Today's Extremes

State Highs State Lows

Community

WunderPhotos

Category 6

Welcome to Category 6. This is the collective home for Weather Underground's featured writeups by Dr. Jeff Masters (right), Bob Henson (left), Chris Burt, and other regular contributors.

Nearby

Air Quality

  Air Quality AQ Index Pollutant
Not available.

Snow Depth

Station Depth Elevation

Earthquake Activity

City Distance Mag. Time & Date
Minimum magnitude displayed is 2.5.

Coastal Water Temperatures

Place Temperature

Stations

Nearby Weather Stations

Station Location Temp. Windchill Dew Point Humidity Wind Precip. Elev Updated Type
                   

Watches & Warnings

Flash Flood Watch
Issued: 2:42 PM CDT Sep. 21, 2019 – National Weather Service

... Flash Flood Watch remains in effect from 7 PM CDT this evening
through late Sunday night...

The Flash Flood Watch continues for

* portions of northeast Iowa and southwest Wisconsin, including
the following areas, in northeast Iowa, Clayton and Fayette.
In southwest Wisconsin, Grant.

* From 7 PM CDT this evening through late Sunday night

* rainfall of 1 to 3 inches possible tonight into Sunday morning

Precautionary/preparedness actions...

A Flash Flood Watch means that conditions may develop that lead
to flash flooding. Flash flooding is a very dangerous situation.

You should monitor later forecasts and be prepared to take action
should flash flood warnings be issued.



CA